sensor_id;sensor_type;location;lat;lon;timestamp;temperature;humidity
12223;DHT22;6174;49.058;8.524;2022-10-19T04:02:53;15.20;99.90
12223;DHT22;6174;49.058;8.524;2022-10-19T04:05:19;15.20;99.90
12223;DHT22;6174;49.058;8.524;2022-10-19T04:07:46;15.20;99.90
12223;DHT22;6174;49.058;8.524;2022-10-19T04:10:13;15.10;99.90
12223;DHT22;6174;49.058;8.524;2022-10-19T04:12:40;15.10;99.90
12223;DHT22;6174;49.058;8.524;2022-10-19T04:15:07;15.10;99.90
12223;DHT22;6174;49.058;8.524;2022-10-19T04:17:34;15.10;99.90
12223;DHT22;6174;49.058;8.524;2022-10-19T04:20:03;15.20;99.90
12223;DHT22;6174;49.058;8.524;2022-10-19T04:22:30;15.30;99.90
12223;DHT22;6174;49.058;8.524;2022-10-19T04:24:57;15.30;99.90
12223;DHT22;6174;49.058;8.524;2022-10-19T04:27:23;15.30;99.90
12223;DHT22;6174;49.058;8.524;2022-10-19T04:29:50;15.20;99.90
12223;DHT22;6174;49.058;8.524;2022-10-19T04:32:17;15.30;99.90
12223;DHT22;6174;49.058;8.524;2022-10-19T04:34:43;15.20;99.90
12223;DHT22;6174;49.058;8.524;2022-10-19T04:37:11;15.20;99.90
12223;DHT22;6174;49.058;8.524;2022-10-19T04:39:38;15.20;99.90
12223;DHT22;6174;49.058;8.524;2022-10-19T04:42:07;15.20;99.90
12223;DHT22;6174;49.058;8.524;2022-10-19T04:44:34;15.20;99.90
12223;DHT22;6174;49.058;8.524;2022-10-19T04:47:01;15.20;99.90
12223;DHT22;6174;49.058;8.524;2022-10-19T04:49:27;15.20;99.90
12223;DHT22;6174;49.058;8.524;2022-10-19T04:51:54;15.30;99.90
12223;DHT22;6174;49.058;8.524;2022-10-19T04:54:22;15.20;99.90
12223;DHT22;6174;49.058;8.524;2022-10-19T04:56:49;15.20;99.90
12223;DHT22;6174;49.058;8.524;2022-10-19T04:59:18;15.20;99.90
12223;DHT22;6174;49.058;8.524;2022-10-19T05:01:45;15.20;99.90
12223;DHT22;6174;49.058;8.524;2022-10-19T05:04:11;15.20;99.90
12223;DHT22;6174;49.058;8.524;2022-10-19T05:06:38;15.10;99.90
12223;DHT22;6174;49.058;8.524;2022-10-19T05:09:05;15.10;99.90
12223;DHT22;6174;49.058;8.524;2022-10-19T05:11:33;15.10;99.90
12223;DHT22;6174;49.058;8.524;2022-10-19T05:14:00;15.10;99.90
12223;DHT22;6174;49.058;8.524;2022-10-19T05:16:27;15.10;99.90
12223;DHT22;6174;49.058;8.524;2022-10-19T05:18:55;15.10;99.90
12223;DHT22;6174;49.058;8.524;2022-10-19T05:21:24;15.10;99.90
12223;DHT22;6174;49.058;8.524;2022-10-19T05:23:53;15.10;99.90
12223;DHT22;6174;49.058;8.524;2022-10-19T05:26:24;15.10;99.90
12223;DHT22;6174;49.058;8.524;2022-10-19T05:28:54;15.00;99.90
12223;DHT22;6174;49.058;8.524;2022-10-19T05:31:23;15.10;99.90
12223;DHT22;6174;49.058;8.524;2022-10-19T05:33:50;15.10;99.90
12223;DHT22;6174;49.058;8.524;2022-10-19T05:36:18;15.00;99.90
12223;DHT22;6174;49.058;8.524;2022-10-19T05:38:48;14.90;99.90
12223;DHT22;6174;49.058;8.524;2022-10-19T05:41:17;14.90;99.90
12223;DHT22;6174;49.058;8.524;2022-10-19T05:43:46;14.90;99.90
12223;DHT22;6174;49.058;8.524;2022-10-19T05:46:15;14.90;99.90
12223;DHT22;6174;49.058;8.524;2022-10-19T05:48:43;14.90;99.90
12223;DHT22;6174;49.058;8.524;2022-10-19T05:51:11;14.90;99.90
12223;DHT22;6174;49.058;8.524;2022-10-19T05:53:39;14.90;99.90
12223;DHT22;6174;49.058;8.524;2022-10-19T05:56:08;14.90;99.90
12223;DHT22;6174;49.058;8.524;2022-10-19T05:58:35;14.90;99.90
12223;DHT22;6174;49.058;8.524;2022-10-19T06:01:02;14.80;99.90
12223;DHT22;6174;49.058;8.524;2022-10-19T06:03:30;14.80;99.90
12223;DHT22;6174;49.058;8.524;2022-10-19T06:05:57;14.80;99.90
12223;DHT22;6174;49.058;8.524;2022-10-19T06:08:27;14.80;99.90
12223;DHT22;6174;49.058;8.524;2022-10-19T06:11:03;14.80;99.90
12223;DHT22;6174;49.058;8.524;2022-10-19T06:13:30;14.70;99.90
12223;DHT22;6174;49.058;8.524;2022-10-19T06:15:57;14.80;99.90
12223;DHT22;6174;49.058;8.524;2022-10-19T06:18:24;14.80;99.90
12223;DHT22;6174;49.058;8.524;2022-10-19T06:20:52;14.90;99.90
12223;DHT22;6174;49.058;8.524;2022-10-19T06:23:19;14.90;99.90
12223;DHT22;6174;49.058;8.524;2022-10-19T06:25:45;14.80;99.90
12223;DHT22;6174;49.058;8.524;2022-10-19T06:28:12;14.90;99.90
12223;DHT22;6174;49.058;8.524;2022-10-19T06:30:39;14.90;99.90
12223;DHT22;6174;49.058;8.524;2022-10-19T06:33:07;14.90;99.90
12223;DHT22;6174;49.058;8.524;2022-10-19T06:35:34;14.90;99.90
12223;DHT22;6174;49.058;8.524;2022-10-19T06:38:02;14.90;99.90
12223;DHT22;6174;49.058;8.524;2022-10-19T06:40:29;14.90;99.90
12223;DHT22;6174;49.058;8.524;2022-10-19T06:42:55;14.90;99.90
12223;DHT22;6174;49.058;8.524;2022-10-19T06:45:23;14.90;99.90
12223;DHT22;6174;49.058;8.524;2022-10-19T06:47:49;15.00;99.90
12223;DHT22;6174;49.058;8.524;2022-10-19T06:50:17;15.00;99.90
12223;DHT22;6174;49.058;8.524;2022-10-19T06:52:45;15.00;99.90
12223;DHT22;6174;49.058;8.524;2022-10-19T06:55:13;15.00;99.90
12223;DHT22;6174;49.058;8.524;2022-10-19T06:57:42;15.10;99.90
12223;DHT22;6174;49.058;8.524;2022-10-19T07:00:10;15.10;99.90
12223;DHT22;6174;49.058;8.524;2022-10-19T07:02:37;15.10;99.90
12223;DHT22;6174;49.058;8.524;2022-10-19T07:05:05;15.10;99.90
12223;DHT22;6174;49.058;8.524;2022-10-19T07:07:32;15.10;99.90
12223;DHT22;6174;49.058;8.524;2022-10-19T07:09:58;15.10;99.90
12223;DHT22;6174;49.058;8.524;2022-10-19T07:12:26;15.20;99.90
12223;DHT22;6174;49.058;8.524;2022-10-19T07:14:53;15.20;99.90
12223;DHT22;6174;49.058;8.524;2022-10-19T07:17:20;15.20;99.90
12223;DHT22;6174;49.058;8.524;2022-10-19T07:19:47;15.10;99.90
12223;DHT22;6174;49.058;8.524;2022-10-19T07:22:14;15.20;99.90
12223;DHT22;6174;49.058;8.524;2022-10-19T07:24:41;15.20;99.90
12223;DHT22;6174;49.058;8.524;2022-10-19T07:27:07;15.30;99.90
12223;DHT22;6174;49.058;8.524;2022-10-19T07:29:36;15.30;99.90
12223;DHT22;6174;49.058;8.524;2022-10-19T07:32:02;15.30;99.90
12223;DHT22;6174;49.058;8.524;2022-10-19T07:34:29;15.30;99.90
12223;DHT22;6174;49.058;8.524;2022-10-19T07:36:56;15.30;99.90
12223;DHT22;6174;49.058;8.524;2022-10-19T07:39:23;15.40;99.90
12223;DHT22;6174;49.058;8.524;2022-10-19T07:41:49;15.50;99.90
12223;DHT22;6174;49.058;8.524;2022-10-19T07:44:16;15.50;99.90
12223;DHT22;6174;49.058;8.524;2022-10-19T07:46:44;15.50;99.90
12223;DHT22;6174;49.058;8.524;2022-10-19T07:49:13;15.50;99.90
12223;DHT22;6174;49.058;8.524;2022-10-19T07:51:44;15.50;99.90
12223;DHT22;6174;49.058;8.524;2022-10-19T07:54:11;15.50;99.90
12223;DHT22;6174;49.058;8.524;2022-10-19T07:56:38;15.40;99.90
12223;DHT22;6174;49.058;8.524;2022-10-19T07:59:05;15.40;99.90
12223;DHT22;6174;49.058;8.524;2022-10-19T08:01:33;15.40;99.90
12223;DHT22;6174;49.058;8.524;2022-10-19T08:04:02;15.40;99.90
12223;DHT22;6174;49.058;8.524;2022-10-19T08:06:29;15.40;99.90
12223;DHT22;6174;49.058;8.524;2022-10-19T08:08:56;15.50;99.90
12223;DHT22;6174;49.058;8.524;2022-10-19T08:11:24;15.40;99.90
12223;DHT22;6174;49.058;8.524;2022-10-19T08:13:52;15.40;99.90
12223;DHT22;6174;49.058;8.524;2022-10-19T08:16:22;15.40;99.90
12223;DHT22;6174;49.058;8.524;2022-10-19T08:18:49;15.30;99.90
12223;DHT22;6174;49.058;8.524;2022-10-19T08:21:17;15.30;99.90
12223;DHT22;6174;49.058;8.524;2022-10-19T08:23:44;15.30;99.90
12223;DHT22;6174;49.058;8.524;2022-10-19T08:26:11;15.30;99.90
12223;DHT22;6174;49.058;8.524;2022-10-19T08:28:38;15.30;99.90
12223;DHT22;6174;49.058;8.524;2022-10-19T08:31:12;15.30;99.90
12223;DHT22;6174;49.058;8.524;2022-10-19T08:33:39;15.30;99.90
12223;DHT22;6174;49.058;8.524;2022-10-19T08:36:07;15.40;99.90
12223;DHT22;6174;49.058;8.524;2022-10-19T08:38:36;15.40;99.90
12223;DHT22;6174;49.058;8.524;2022-10-19T08:41:17;15.40;99.90
12223;DHT22;6174;49.058;8.524;2022-10-19T08:44:00;15.40;99.90
12223;DHT22;6174;49.058;8.524;2022-10-19T08:46:38;15.40;99.90
12223;DHT22;6174;49.058;8.524;2022-10-19T08:49:07;15.50;99.90
12223;DHT22;6174;49.058;8.524;2022-10-19T08:51:38;15.50;99.90
12223;DHT22;6174;49.058;8.524;2022-10-19T08:54:11;15.50;99.90
12223;DHT22;6174;49.058;8.524;2022-10-19T08:56:46;15.50;99.90
12223;DHT22;6174;49.058;8.524;2022-10-19T08:59:21;15.60;99.90
12223;DHT22;6174;49.058;8.524;2022-10-19T09:01:51;15.60;99.90
12223;DHT22;6174;49.058;8.524;2022-10-19T09:04:23;15.60;99.90
12223;DHT22;6174;49.058;8.524;2022-10-19T09:07:13;15.70;99.90
12223;DHT22;6174;49.058;8.524;2022-10-19T09:09:50;15.70;99.90
12223;DHT22;6174;49.058;8.524;2022-10-19T09:12:29;15.80;99.90
12223;DHT22;6174;49.058;8.524;2022-10-19T09:14:59;15.80;99.90
12223;DHT22;6174;49.058;8.524;2022-10-19T09:17:27;15.80;99.90
12223;DHT22;6174;49.058;8.524;2022-10-19T09:19:54;15.80;99.90
12223;DHT22;6174;49.058;8.524;2022-10-19T09:22:26;16.00;99.90
12223;DHT22;6174;49.058;8.524;2022-10-19T09:24:59;16.20;99.90
12223;DHT22;6174;49.058;8.524;2022-10-19T09:27:30;16.30;99.90
12223;DHT22;6174;49.058;8.524;2022-10-19T09:30:02;16.20;99.90
12223;DHT22;6174;49.058;8.524;2022-10-19T09:32:32;16.20;99.90
12223;DHT22;6174;49.058;8.524;2022-10-19T09:35:01;16.20;99.90
12223;DHT22;6174;49.058;8.524;2022-10-19T09:37:29;16.30;99.90
12223;DHT22;6174;49.058;8.524;2022-10-19T09:39:58;16.20;99.90
12223;DHT22;6174;49.058;8.524;2022-10-19T09:42:27;16.10;99.90
12223;DHT22;6174;49.058;8.524;2022-10-19T09:44:55;16.10;99.90
12223;DHT22;6174;49.058;8.524;2022-10-19T09:47:31;16.10;99.90
12223;DHT22;6174;49.058;8.524;2022-10-19T09:50:08;16.00;99.90
12223;DHT22;6174;49.058;8.524;2022-10-19T09:52:40;16.10;99.90
12223;DHT22;6174;49.058;8.524;2022-10-19T09:55:24;16.20;99.90
12223;DHT22;6174;49.058;8.524;2022-10-19T09:57:59;16.30;99.90
12223;DHT22;6174;49.058;8.524;2022-10-19T10:00:32;16.30;99.90
12223;DHT22;6174;49.058;8.524;2022-10-19T10:02:59;16.40;99.90
12223;DHT22;6174;49.058;8.524;2022-10-19T10:05:31;16.50;99.90
12223;DHT22;6174;49.058;8.524;2022-10-19T10:07:58;16.50;99.90
12223;DHT22;6174;49.058;8.524;2022-10-19T10:10:30;16.60;99.90
12223;DHT22;6174;49.058;8.524;2022-10-19T10:12:59;16.80;99.90
12223;DHT22;6174;49.058;8.524;2022-10-19T10:15:29;16.90;99.90
12223;DHT22;6174;49.058;8.524;2022-10-19T10:18:00;17.10;99.90
12223;DHT22;6174;49.058;8.524;2022-10-19T10:20:29;17.10;99.90
12223;DHT22;6174;49.058;8.524;2022-10-19T10:22:59;17.00;99.90
12223;DHT22;6174;49.058;8.524;2022-10-19T10:25:30;16.90;99.90
12223;DHT22;6174;49.058;8.524;2022-10-19T10:28:01;16.90;99.90
12223;DHT22;6174;49.058;8.524;2022-10-19T10:30:31;16.90;99.90
12223;DHT22;6174;49.058;8.524;2022-10-19T10:32:59;17.00;99.90
12223;DHT22;6174;49.058;8.524;2022-10-19T10:35:30;17.00;99.90
12223;DHT22;6174;49.058;8.524;2022-10-19T10:38:07;17.00;99.90
12223;DHT22;6174;49.058;8.524;2022-10-19T10:40:37;17.10;99.90
12223;DHT22;6174;49.058;8.524;2022-10-19T10:43:07;17.20;99.90
12223;DHT22;6174;49.058;8.524;2022-10-19T10:45:37;17.20;99.90
12223;DHT22;6174;49.058;8.524;2022-10-19T10:48:16;17.10;99.90
12223;DHT22;6174;49.058;8.524;2022-10-19T10:50:45;17.20;99.90
12223;DHT22;6174;49.058;8.524;2022-10-19T10:53:31;17.20;99.90
12223;DHT22;6174;49.058;8.524;2022-10-19T10:56:00;17.20;99.90
12223;DHT22;6174;49.058;8.524;2022-10-19T10:58:34;17.20;99.90
12223;DHT22;6174;49.058;8.524;2022-10-19T11:01:05;17.20;99.90
12223;DHT22;6174;49.058;8.524;2022-10-19T11:03:36;17.30;99.90
12223;DHT22;6174;49.058;8.524;2022-10-19T11:06:07;17.30;99.90
12223;DHT22;6174;49.058;8.524;2022-10-19T11:08:42;17.30;99.90
12223;DHT22;6174;49.058;8.524;2022-10-19T11:11:14;17.30;99.90
12223;DHT22;6174;49.058;8.524;2022-10-19T11:13:49;17.30;99.90
12223;DHT22;6174;49.058;8.524;2022-10-19T11:16:18;17.30;99.90
12223;DHT22;6174;49.058;8.524;2022-10-19T11:18:47;17.30;99.90
12223;DHT22;6174;49.058;8.524;2022-10-19T11:21:19;17.30;99.90
12223;DHT22;6174;49.058;8.524;2022-10-19T11:23:54;17.20;99.90
12223;DHT22;6174;49.058;8.524;2022-10-19T11:26:40;17.10;99.90
12223;DHT22;6174;49.058;8.524;2022-10-19T11:29:27;17.20;99.90
12223;DHT22;6174;49.058;8.524;2022-10-19T11:31:57;17.10;99.90
12223;DHT22;6174;49.058;8.524;2022-10-19T11:34:40;17.10;99.90
12223;DHT22;6174;49.058;8.524;2022-10-19T11:37:17;17.30;99.90
12223;DHT22;6174;49.058;8.524;2022-10-19T11:39:54;17.40;99.90
12223;DHT22;6174;49.058;8.524;2022-10-19T11:42:37;17.50;99.90
12223;DHT22;6174;49.058;8.524;2022-10-19T11:45:12;17.50;99.90
12223;DHT22;6174;49.058;8.524;2022-10-19T11:47:55;17.60;99.90
12223;DHT22;6174;49.058;8.524;2022-10-19T11:50:35;17.70;99.90
12223;DHT22;6174;49.058;8.524;2022-10-19T11:53:10;17.70;99.90
12223;DHT22;6174;49.058;8.524;2022-10-19T11:55:44;17.80;99.90
12223;DHT22;6174;49.058;8.524;2022-10-19T11:58:33;17.80;99.90
12223;DHT22;6174;49.058;8.524;2022-10-19T12:01:10;17.90;99.90
12223;DHT22;6174;49.058;8.524;2022-10-19T12:03:59;17.80;99.90
12223;DHT22;6174;49.058;8.524;2022-10-19T12:06:36;17.70;99.90
12223;DHT22;6174;49.058;8.524;2022-10-19T12:09:16;17.70;99.90
12223;DHT22;6174;49.058;8.524;2022-10-19T12:11:57;17.60;99.90
12223;DHT22;6174;49.058;8.524;2022-10-19T12:14:30;17.60;99.90
12223;DHT22;6174;49.058;8.524;2022-10-19T12:17:04;17.50;99.90
12223;DHT22;6174;49.058;8.524;2022-10-19T12:19:35;17.50;99.90
12223;DHT22;6174;49.058;8.524;2022-10-19T12:22:06;17.50;99.90
12223;DHT22;6174;49.058;8.524;2022-10-19T12:24:35;17.50;99.90
12223;DHT22;6174;49.058;8.524;2022-10-19T12:27:03;17.60;99.90
12223;DHT22;6174;49.058;8.524;2022-10-19T12:29:34;17.60;99.90
12223;DHT22;6174;49.058;8.524;2022-10-19T12:32:04;17.60;99.90
12223;DHT22;6174;49.058;8.524;2022-10-19T12:34:41;17.80;99.90
12223;DHT22;6174;49.058;8.524;2022-10-19T12:37:13;17.90;99.90
12223;DHT22;6174;49.058;8.524;2022-10-19T12:39:45;17.90;99.90
12223;DHT22;6174;49.058;8.524;2022-10-19T12:42:19;18.00;99.90
12223;DHT22;6174;49.058;8.524;2022-10-19T12:45:07;18.00;99.90
12223;DHT22;6174;49.058;8.524;2022-10-19T12:47:34;18.10;99.90
12223;DHT22;6174;49.058;8.524;2022-10-19T12:50:01;18.10;99.90
12223;DHT22;6174;49.058;8.524;2022-10-19T12:52:42;18.20;99.90
12223;DHT22;6174;49.058;8.524;2022-10-19T12:55:27;18.30;99.90
12223;DHT22;6174;49.058;8.524;2022-10-19T12:58:01;18.40;99.90
12223;DHT22;6174;49.058;8.524;2022-10-19T13:00:32;18.50;99.90
12223;DHT22;6174;49.058;8.524;2022-10-19T13:03:02;18.60;99.90
12223;DHT22;6174;49.058;8.524;2022-10-19T13:05:31;18.70;99.90
12223;DHT22;6174;49.058;8.524;2022-10-19T13:08:01;18.80;99.90
12223;DHT22;6174;49.058;8.524;2022-10-19T13:10:30;19.00;99.90
12223;DHT22;6174;49.058;8.524;2022-10-19T13:12:57;19.20;99.90
12223;DHT22;6174;49.058;8.524;2022-10-19T13:15:56;19.30;99.90
12223;DHT22;6174;49.058;8.524;2022-10-19T13:24:31;19.40;99.90
12223;DHT22;6174;49.058;8.524;2022-10-19T13:36:09;19.40;99.90
12223;DHT22;6174;49.058;8.524;2022-10-19T13:38:36;19.30;99.90
12223;DHT22;6174;49.058;8.524;2022-10-19T13:43:58;19.20;99.90
12223;DHT22;6174;49.058;8.524;2022-10-19T13:46:47;19.10;99.90
12223;DHT22;6174;49.058;8.524;2022-10-19T13:49:42;18.90;99.90
12223;DHT22;6174;49.058;8.524;2022-10-19T13:52:31;18.70;99.90
12223;DHT22;6174;49.058;8.524;2022-10-19T13:55:31;18.60;99.90
12223;DHT22;6174;49.058;8.524;2022-10-19T13:58:22;18.50;99.90
12223;DHT22;6174;49.058;8.524;2022-10-19T14:01:04;18.50;99.90
12223;DHT22;6174;49.058;8.524;2022-10-19T14:03:48;18.40;99.90
12223;DHT22;6174;49.058;8.524;2022-10-19T14:06:23;18.50;99.90
12223;DHT22;6174;49.058;8.524;2022-10-19T14:12:17;18.40;99.90
12223;DHT22;6174;49.058;8.524;2022-10-19T14:14:48;18.30;99.90
12223;DHT22;6174;49.058;8.524;2022-10-19T14:17:19;18.30;99.90
12223;DHT22;6174;49.058;8.524;2022-10-19T14:19:50;18.30;99.90
12223;DHT22;6174;49.058;8.524;2022-10-19T14:22:24;18.20;99.90
12223;DHT22;6174;49.058;8.524;2022-10-19T14:24:59;18.30;99.90
12223;DHT22;6174;49.058;8.524;2022-10-19T14:27:29;18.30;99.90
12223;DHT22;6174;49.058;8.524;2022-10-19T14:29:56;18.40;99.90
12223;DHT22;6174;49.058;8.524;2022-10-19T14:32:24;18.40;99.90
12223;DHT22;6174;49.058;8.524;2022-10-19T14:34:52;18.30;99.90
12223;DHT22;6174;49.058;8.524;2022-10-19T14:37:23;18.40;99.90
12223;DHT22;6174;49.058;8.524;2022-10-19T14:39:58;18.20;99.90
12223;DHT22;6174;49.058;8.524;2022-10-19T14:42:37;18.20;99.90
12223;DHT22;6174;49.058;8.524;2022-10-19T14:45:11;18.10;99.90
12223;DHT22;6174;49.058;8.524;2022-10-19T14:47:50;18.00;99.90
12223;DHT22;6174;49.058;8.524;2022-10-19T14:50:17;18.00;99.90
12223;DHT22;6174;49.058;8.524;2022-10-19T14:52:45;18.00;99.90
12223;DHT22;6174;49.058;8.524;2022-10-19T14:55:17;18.00;99.90
12223;DHT22;6174;49.058;8.524;2022-10-19T14:57:47;18.00;99.90
12223;DHT22;6174;49.058;8.524;2022-10-19T15:00:17;18.00;99.90
12223;DHT22;6174;49.058;8.524;2022-10-19T15:02:48;17.90;99.90
12223;DHT22;6174;49.058;8.524;2022-10-19T15:05:19;17.90;99.90
12223;DHT22;6174;49.058;8.524;2022-10-19T15:07:47;17.90;99.90
12223;DHT22;6174;49.058;8.524;2022-10-19T15:10:19;18.00;99.90
12223;DHT22;6174;49.058;8.524;2022-10-19T15:12:48;17.90;99.90
12223;DHT22;6174;49.058;8.524;2022-10-19T15:15:19;17.90;99.90
12223;DHT22;6174;49.058;8.524;2022-10-19T15:17:50;18.00;99.90
12223;DHT22;6174;49.058;8.524;2022-10-19T15:20:26;18.00;99.90
12223;DHT22;6174;49.058;8.524;2022-10-19T15:22:54;18.00;99.90
12223;DHT22;6174;49.058;8.524;2022-10-19T15:25:33;18.00;99.90
12223;DHT22;6174;49.058;8.524;2022-10-19T15:28:32;17.90;99.90
12223;DHT22;6174;49.058;8.524;2022-10-19T15:31:00;17.80;99.90
12223;DHT22;6174;49.058;8.524;2022-10-19T15:33:29;17.70;99.90
12223;DHT22;6174;49.058;8.524;2022-10-19T15:36:08;17.80;99.90
12223;DHT22;6174;49.058;8.524;2022-10-19T15:38:42;17.70;99.90
12223;DHT22;6174;49.058;8.524;2022-10-19T15:41:17;17.70;99.90
12223;DHT22;6174;49.058;8.524;2022-10-19T15:43:50;17.60;99.90
12223;DHT22;6174;49.058;8.524;2022-10-19T15:46:28;17.60;99.90
12223;DHT22;6174;49.058;8.524;2022-10-19T15:49:00;17.50;99.90
12223;DHT22;6174;49.058;8.524;2022-10-19T15:51:34;17.50;99.90
12223;DHT22;6174;49.058;8.524;2022-10-19T15:54:02;17.50;99.90
12223;DHT22;6174;49.058;8.524;2022-10-19T15:56:32;17.50;99.90
12223;DHT22;6174;49.058;8.524;2022-10-19T15:59:02;17.50;99.90
12223;DHT22;6174;49.058;8.524;2022-10-19T16:01:31;17.50;99.90
12223;DHT22;6174;49.058;8.524;2022-10-19T16:03:58;17.40;99.90
12223;DHT22;6174;49.058;8.524;2022-10-19T16:06:27;17.40;99.90
12223;DHT22;6174;49.058;8.524;2022-10-19T16:08:54;17.20;99.90
12223;DHT22;6174;49.058;8.524;2022-10-19T16:11:23;17.20;99.90
12223;DHT22;6174;49.058;8.524;2022-10-19T16:13:50;17.10;99.90
12223;DHT22;6174;49.058;8.524;2022-10-19T16:16:21;17.10;99.90
12223;DHT22;6174;49.058;8.524;2022-10-19T16:18:52;17.10;99.90
12223;DHT22;6174;49.058;8.524;2022-10-19T16:21:20;17.00;99.90
12223;DHT22;6174;49.058;8.524;2022-10-19T16:23:47;16.90;99.90
12223;DHT22;6174;49.058;8.524;2022-10-19T16:26:14;16.80;99.90
12223;DHT22;6174;49.058;8.524;2022-10-19T16:28:42;16.70;99.90
12223;DHT22;6174;49.058;8.524;2022-10-19T16:31:09;16.70;99.90
12223;DHT22;6174;49.058;8.524;2022-10-19T16:33:38;16.60;99.90
12223;DHT22;6174;49.058;8.524;2022-10-19T16:36:05;16.50;99.90
12223;DHT22;6174;49.058;8.524;2022-10-19T16:38:33;16.50;99.90
12223;DHT22;6174;49.058;8.524;2022-10-19T16:41:01;16.40;99.90
12223;DHT22;6174;49.058;8.524;2022-10-19T16:43:28;16.40;99.90
12223;DHT22;6174;49.058;8.524;2022-10-19T16:45:55;16.30;99.90
12223;DHT22;6174;49.058;8.524;2022-10-19T16:48:22;16.30;99.90
12223;DHT22;6174;49.058;8.524;2022-10-19T16:51:17;16.20;99.90
12223;DHT22;6174;49.058;8.524;2022-10-19T16:53:44;16.10;99.90
12223;DHT22;6174;49.058;8.524;2022-10-19T16:56:12;16.10;99.90
12223;DHT22;6174;49.058;8.524;2022-10-19T16:58:39;16.00;99.90
12223;DHT22;6174;49.058;8.524;2022-10-19T17:01:06;16.00;99.90
12223;DHT22;6174;49.058;8.524;2022-10-19T17:03:33;15.90;99.90
12223;DHT22;6174;49.058;8.524;2022-10-19T17:06:02;15.90;99.90
12223;DHT22;6174;49.058;8.524;2022-10-19T17:08:29;15.80;99.90
12223;DHT22;6174;49.058;8.524;2022-10-19T17:10:57;15.80;99.90
12223;DHT22;6174;49.058;8.524;2022-10-19T17:13:24;15.70;99.90
12223;DHT22;6174;49.058;8.524;2022-10-19T17:15:50;15.70;99.90
12223;DHT22;6174;49.058;8.524;2022-10-19T17:18:17;15.70;99.90
12223;DHT22;6174;49.058;8.524;2022-10-19T17:20:44;15.60;99.90
12223;DHT22;6174;49.058;8.524;2022-10-19T17:23:12;15.60;99.90
12223;DHT22;6174;49.058;8.524;2022-10-19T17:25:45;15.60;99.90
12223;DHT22;6174;49.058;8.524;2022-10-19T17:28:12;15.50;99.90
12223;DHT22;6174;49.058;8.524;2022-10-19T17:30:39;15.50;99.90
12223;DHT22;6174;49.058;8.524;2022-10-19T17:33:06;15.50;99.90
12223;DHT22;6174;49.058;8.524;2022-10-19T17:35:33;15.40;99.90
12223;DHT22;6174;49.058;8.524;2022-10-19T17:38:00;15.40;99.90
12223;DHT22;6174;49.058;8.524;2022-10-19T17:40:28;15.40;99.90
12223;DHT22;6174;49.058;8.524;2022-10-19T17:42:55;15.30;99.90
12223;DHT22;6174;49.058;8.524;2022-10-19T17:45:22;15.20;99.90
12223;DHT22;6174;49.058;8.524;2022-10-19T17:47:48;15.20;99.90
12223;DHT22;6174;49.058;8.524;2022-10-19T17:50:15;15.20;99.90
12223;DHT22;6174;49.058;8.524;2022-10-19T17:52:42;15.20;99.90
12223;DHT22;6174;49.058;8.524;2022-10-19T17:55:09;15.20;99.90
12223;DHT22;6174;49.058;8.524;2022-10-19T17:57:37;15.20;99.90
12223;DHT22;6174;49.058;8.524;2022-10-19T18:00:05;15.10;99.90
12223;DHT22;6174;49.058;8.524;2022-10-19T18:02:32;15.10;99.90
12223;DHT22;6174;49.058;8.524;2022-10-19T18:05:00;15.00;99.90
12223;DHT22;6174;49.058;8.524;2022-10-19T18:07:27;15.00;99.90
12223;DHT22;6174;49.058;8.524;2022-10-19T18:09:53;14.90;99.90
12223;DHT22;6174;49.058;8.524;2022-10-19T18:12:20;14.90;99.90
12223;DHT22;6174;49.058;8.524;2022-10-19T18:14:48;14.90;99.90
12223;DHT22;6174;49.058;8.524;2022-10-19T18:17:15;14.80;99.90
12223;DHT22;6174;49.058;8.524;2022-10-19T18:19:42;14.90;99.90
12223;DHT22;6174;49.058;8.524;2022-10-19T18:22:08;14.80;99.90
12223;DHT22;6174;49.058;8.524;2022-10-19T18:24:35;14.80;99.90
12223;DHT22;6174;49.058;8.524;2022-10-19T18:27:02;14.80;99.90
12223;DHT22;6174;49.058;8.524;2022-10-19T18:29:29;14.80;99.90
12223;DHT22;6174;49.058;8.524;2022-10-19T18:31:57;14.70;99.90
12223;DHT22;6174;49.058;8.524;2022-10-19T18:34:25;14.70;99.90
12223;DHT22;6174;49.058;8.524;2022-10-19T18:36:53;14.60;99.90
12223;DHT22;6174;49.058;8.524;2022-10-19T18:39:20;14.60;99.90
12223;DHT22;6174;49.058;8.524;2022-10-19T18:41:49;14.60;99.90
12223;DHT22;6174;49.058;8.524;2022-10-19T18:44:18;14.50;99.90
12223;DHT22;6174;49.058;8.524;2022-10-19T18:46:45;14.50;99.90
12223;DHT22;6174;49.058;8.524;2022-10-19T18:49:13;14.50;99.90
12223;DHT22;6174;49.058;8.524;2022-10-19T18:51:40;14.50;99.90
12223;DHT22;6174;49.058;8.524;2022-10-19T18:54:08;14.40;99.90
12223;DHT22;6174;49.058;8.524;2022-10-19T18:56:36;14.40;99.90
12223;DHT22;6174;49.058;8.524;2022-10-19T18:59:03;14.40;99.90
12223;DHT22;6174;49.058;8.524;2022-10-19T19:01:30;14.40;99.90
12223;DHT22;6174;49.058;8.524;2022-10-19T19:04:03;14.30;99.90
12223;DHT22;6174;49.058;8.524;2022-10-19T19:06:32;14.30;99.90
12223;DHT22;6174;49.058;8.524;2022-10-19T19:09:02;14.30;99.90
12223;DHT22;6174;49.058;8.524;2022-10-19T19:11:30;14.20;99.90
12223;DHT22;6174;49.058;8.524;2022-10-19T19:13:58;14.20;99.90
12223;DHT22;6174;49.058;8.524;2022-10-19T19:16:26;14.20;99.90
12223;DHT22;6174;49.058;8.524;2022-10-19T19:18:54;14.20;99.90
12223;DHT22;6174;49.058;8.524;2022-10-19T19:21:22;14.20;99.90
12223;DHT22;6174;49.058;8.524;2022-10-19T19:23:51;14.20;99.90
12223;DHT22;6174;49.058;8.524;2022-10-19T19:26:19;14.10;99.90
12223;DHT22;6174;49.058;8.524;2022-10-19T19:28:46;14.10;99.90
12223;DHT22;6174;49.058;8.524;2022-10-19T19:31:13;14.10;99.90
12223;DHT22;6174;49.058;8.524;2022-10-19T19:33:41;14.10;99.90
12223;DHT22;6174;49.058;8.524;2022-10-19T19:36:08;14.10;99.90
12223;DHT22;6174;49.058;8.524;2022-10-19T19:38:35;14.00;99.90
12223;DHT22;6174;49.058;8.524;2022-10-19T19:41:04;14.00;99.90
12223;DHT22;6174;49.058;8.524;2022-10-19T19:43:33;13.90;99.90
12223;DHT22;6174;49.058;8.524;2022-10-19T19:46:02;13.80;99.90
12223;DHT22;6174;49.058;8.524;2022-10-19T19:48:30;13.80;99.90
12223;DHT22;6174;49.058;8.524;2022-10-19T19:50:56;13.70;99.90
12223;DHT22;6174;49.058;8.524;2022-10-19T19:53:23;13.70;99.90
12223;DHT22;6174;49.058;8.524;2022-10-19T19:55:50;13.70;99.90
12223;DHT22;6174;49.058;8.524;2022-10-19T19:58:18;13.70;99.90
12223;DHT22;6174;49.058;8.524;2022-10-19T20:00:45;13.70;99.90
12223;DHT22;6174;49.058;8.524;2022-10-19T20:03:12;13.70;99.90
12223;DHT22;6174;49.058;8.524;2022-10-19T20:05:40;13.60;99.90
12223;DHT22;6174;49.058;8.524;2022-10-19T20:08:07;13.60;99.90
12223;DHT22;6174;49.058;8.524;2022-10-19T20:10:37;13.60;99.90
12223;DHT22;6174;49.058;8.524;2022-10-19T20:13:03;13.60;99.90
12223;DHT22;6174;49.058;8.524;2022-10-19T20:15:32;13.60;99.90
12223;DHT22;6174;49.058;8.524;2022-10-19T20:17:59;13.60;99.90
12223;DHT22;6174;49.058;8.524;2022-10-19T20:20:25;13.60;99.90
12223;DHT22;6174;49.058;8.524;2022-10-19T20:22:52;13.60;99.90
12223;DHT22;6174;49.058;8.524;2022-10-19T20:25:19;13.60;99.90
12223;DHT22;6174;49.058;8.524;2022-10-19T20:27:45;13.60;99.90